sensor_id;sensor_type;location;lat;lon;timestamp;P1;durP1;ratioP1;P2;durP2;ratioP2
60344;SDS011;46188;52.324;8.032;2023-02-21T00:02:14;40.35;;;21.80;;
60344;SDS011;46188;52.324;8.032;2023-02-21T00:07:42;38.58;;;21.65;;
60344;SDS011;46188;52.324;8.032;2023-02-21T00:10:26;41.60;;;22.15;;
60344;SDS011;46188;52.324;8.032;2023-02-21T00:13:10;41.33;;;22.42;;
60344;SDS011;46188;52.324;8.032;2023-02-21T00:15:54;37.97;;;23.45;;
60344;SDS011;46188;52.324;8.032;2023-02-21T00:18:38;38.85;;;22.30;;
60344;SDS011;46188;52.324;8.032;2023-02-21T00:21:23;47.00;;;23.58;;
60344;SDS011;46188;52.324;8.032;2023-02-21T00:24:16;38.78;;;22.40;;
60344;SDS011;46188;52.324;8.032;2023-02-21T00:27:01;43.08;;;23.15;;
60344;SDS011;46188;52.324;8.032;2023-02-21T00:29:47;39.45;;;22.60;;
60344;SDS011;46188;52.324;8.032;2023-02-21T00:32:31;41.50;;;22.10;;
60344;SDS011;46188;52.324;8.032;2023-02-21T00:35:16;41.15;;;21.83;;
60344;SDS011;46188;52.324;8.032;2023-02-21T00:37:59;43.10;;;22.15;;
60344;SDS011;46188;52.324;8.032;2023-02-21T00:43:31;37.88;;;20.60;;
60344;SDS011;46188;52.324;8.032;2023-02-21T00:46:16;40.38;;;20.65;;
60344;SDS011;46188;52.324;8.032;2023-02-21T00:49:01;41.33;;;22.38;;
60344;SDS011;46188;52.324;8.032;2023-02-21T00:51:45;38.38;;;20.33;;
60344;SDS011;46188;52.324;8.032;2023-02-21T00:54:29;45.35;;;24.00;;
60344;SDS011;46188;52.324;8.032;2023-02-21T00:57:13;39.20;;;22.80;;
60344;SDS011;46188;52.324;8.032;2023-02-21T00:59:58;37.25;;;21.55;;
60344;SDS011;46188;52.324;8.032;2023-02-21T01:02:42;41.50;;;21.00;;
60344;SDS011;46188;52.324;8.032;2023-02-21T01:08:10;42.55;;;22.55;;
60344;SDS011;46188;52.324;8.032;2023-02-21T01:13:38;40.08;;;21.35;;
60344;SDS011;46188;52.324;8.032;2023-02-21T01:19:06;42.22;;;21.23;;
60344;SDS011;46188;52.324;8.032;2023-02-21T01:21:50;37.47;;;20.90;;
60344;SDS011;46188;52.324;8.032;2023-02-21T01:24:34;41.13;;;23.90;;
60344;SDS011;46188;52.324;8.032;2023-02-21T01:27:18;39.38;;;22.73;;
60344;SDS011;46188;52.324;8.032;2023-02-21T01:30:02;43.83;;;22.88;;
60344;SDS011;46188;52.324;8.032;2023-02-21T01:32:47;37.40;;;21.13;;
60344;SDS011;46188;52.324;8.032;2023-02-21T01:35:31;40.20;;;22.75;;
60344;SDS011;46188;52.324;8.032;2023-02-21T01:38:15;40.63;;;23.85;;
60344;SDS011;46188;52.324;8.032;2023-02-21T01:40:59;43.78;;;22.52;;
60344;SDS011;46188;52.324;8.032;2023-02-21T01:43:56;43.72;;;23.83;;
60344;SDS011;46188;52.324;8.032;2023-02-21T01:46:44;49.85;;;25.77;;
60344;SDS011;46188;52.324;8.032;2023-02-21T01:49:28;45.20;;;26.15;;
60344;SDS011;46188;52.324;8.032;2023-02-21T01:54:57;45.47;;;24.73;;
60344;SDS011;46188;52.324;8.032;2023-02-21T01:57:41;42.28;;;22.88;;
60344;SDS011;46188;52.324;8.032;2023-02-21T02:00:28;46.08;;;24.20;;
60344;SDS011;46188;52.324;8.032;2023-02-21T02:03:12;46.63;;;25.23;;
60344;SDS011;46188;52.324;8.032;2023-02-21T02:06:01;40.47;;;23.38;;
60344;SDS011;46188;52.324;8.032;2023-02-21T02:08:47;40.83;;;22.73;;
60344;SDS011;46188;52.324;8.032;2023-02-21T02:22:38;41.15;;;23.23;;
60344;SDS011;46188;52.324;8.032;2023-02-21T02:36:12;40.17;;;22.27;;
60344;SDS011;46188;52.324;8.032;2023-02-21T02:42:05;48.78;;;25.00;;
60344;SDS011;46188;52.324;8.032;2023-02-21T02:44:41;39.78;;;23.63;;
60344;SDS011;46188;52.324;8.032;2023-02-21T02:47:16;45.00;;;25.92;;
60344;SDS011;46188;52.324;8.032;2023-02-21T02:49:53;42.13;;;23.58;;
60344;SDS011;46188;52.324;8.032;2023-02-21T02:52:20;43.20;;;21.15;;
60344;SDS011;46188;52.324;8.032;2023-02-21T02:54:56;46.42;;;26.27;;
60344;SDS011;46188;52.324;8.032;2023-02-21T02:57:25;42.50;;;23.38;;
60344;SDS011;46188;52.324;8.032;2023-02-21T02:59:54;44.40;;;24.45;;
60344;SDS011;46188;52.324;8.032;2023-02-21T03:08:11;40.55;;;22.27;;
60344;SDS011;46188;52.324;8.032;2023-02-21T03:11:00;42.95;;;23.42;;
60344;SDS011;46188;52.324;8.032;2023-02-21T03:16:10;40.97;;;22.60;;
60344;SDS011;46188;52.324;8.032;2023-02-21T03:18:47;40.90;;;22.10;;
60344;SDS011;46188;52.324;8.032;2023-02-21T03:21:20;43.78;;;23.58;;
60344;SDS011;46188;52.324;8.032;2023-02-21T03:23:50;44.00;;;23.65;;
60344;SDS011;46188;52.324;8.032;2023-02-21T03:26:18;38.75;;;21.88;;
60344;SDS011;46188;52.324;8.032;2023-02-21T03:28:44;44.42;;;25.10;;
60344;SDS011;46188;52.324;8.032;2023-02-21T03:31:12;47.13;;;23.90;;
60344;SDS011;46188;52.324;8.032;2023-02-21T03:33:41;42.33;;;22.85;;
60344;SDS011;46188;52.324;8.032;2023-02-21T03:36:07;45.95;;;23.70;;
60344;SDS011;46188;52.324;8.032;2023-02-21T03:38:33;45.58;;;22.58;;
60344;SDS011;46188;52.324;8.032;2023-02-21T03:40:58;44.13;;;23.90;;
60344;SDS011;46188;52.324;8.032;2023-02-21T03:43:24;41.88;;;23.88;;
60344;SDS011;46188;52.324;8.032;2023-02-21T03:45:49;44.83;;;24.70;;
60344;SDS011;46188;52.324;8.032;2023-02-21T03:48:15;45.95;;;25.55;;
60344;SDS011;46188;52.324;8.032;2023-02-21T03:50:40;44.83;;;25.35;;
60344;SDS011;46188;52.324;8.032;2023-02-21T03:53:06;46.25;;;22.98;;
60344;SDS011;46188;52.324;8.032;2023-02-21T03:55:31;47.13;;;25.13;;
60344;SDS011;46188;52.324;8.032;2023-02-21T03:57:57;41.95;;;22.55;;
60344;SDS011;46188;52.324;8.032;2023-02-21T04:00:22;44.40;;;21.85;;
60344;SDS011;46188;52.324;8.032;2023-02-21T04:02:48;42.22;;;23.23;;
60344;SDS011;46188;52.324;8.032;2023-02-21T04:05:13;47.42;;;26.88;;
60344;SDS011;46188;52.324;8.032;2023-02-21T04:07:39;43.63;;;22.95;;
60344;SDS011;46188;52.324;8.032;2023-02-21T04:10:04;46.65;;;25.25;;
60344;SDS011;46188;52.324;8.032;2023-02-21T04:12:30;43.35;;;21.50;;
60344;SDS011;46188;52.324;8.032;2023-02-21T04:14:55;45.42;;;23.95;;
60344;SDS011;46188;52.324;8.032;2023-02-21T04:17:22;45.80;;;23.08;;
60344;SDS011;46188;52.324;8.032;2023-02-21T04:19:48;42.88;;;23.60;;
60344;SDS011;46188;52.324;8.032;2023-02-21T04:22:14;42.58;;;22.13;;
60344;SDS011;46188;52.324;8.032;2023-02-21T04:24:39;45.13;;;24.42;;
60344;SDS011;46188;52.324;8.032;2023-02-21T04:27:05;45.20;;;24.90;;
60344;SDS011;46188;52.324;8.032;2023-02-21T04:29:30;48.38;;;24.67;;
60344;SDS011;46188;52.324;8.032;2023-02-21T04:31:55;45.25;;;23.85;;
60344;SDS011;46188;52.324;8.032;2023-02-21T04:34:21;45.58;;;25.52;;
60344;SDS011;46188;52.324;8.032;2023-02-21T04:36:47;43.47;;;23.35;;
60344;SDS011;46188;52.324;8.032;2023-02-21T04:39:12;46.33;;;23.73;;
60344;SDS011;46188;52.324;8.032;2023-02-21T04:41:38;47.67;;;25.50;;
60344;SDS011;46188;52.324;8.032;2023-02-21T04:44:03;51.25;;;27.25;;
60344;SDS011;46188;52.324;8.032;2023-02-21T04:46:30;47.00;;;25.65;;
60344;SDS011;46188;52.324;8.032;2023-02-21T04:48:55;46.63;;;23.63;;
60344;SDS011;46188;52.324;8.032;2023-02-21T04:51:21;52.35;;;25.27;;
60344;SDS011;46188;52.324;8.032;2023-02-21T04:53:48;54.90;;;27.05;;
60344;SDS011;46188;52.324;8.032;2023-02-21T04:56:14;42.42;;;24.63;;
60344;SDS011;46188;52.324;8.032;2023-02-21T04:58:42;44.10;;;23.25;;
60344;SDS011;46188;52.324;8.032;2023-02-21T05:01:09;51.72;;;25.67;;
60344;SDS011;46188;52.324;8.032;2023-02-21T05:03:36;45.30;;;23.90;;
60344;SDS011;46188;52.324;8.032;2023-02-21T05:06:01;42.45;;;22.75;;
60344;SDS011;46188;52.324;8.032;2023-02-21T05:08:26;51.38;;;25.13;;
60344;SDS011;46188;52.324;8.032;2023-02-21T05:10:52;41.88;;;22.13;;
60344;SDS011;46188;52.324;8.032;2023-02-21T05:13:19;48.25;;;25.67;;
60344;SDS011;46188;52.324;8.032;2023-02-21T05:15:45;49.13;;;24.92;;
60344;SDS011;46188;52.324;8.032;2023-02-21T05:18:10;51.70;;;27.83;;
60344;SDS011;46188;52.324;8.032;2023-02-21T05:20:36;48.42;;;23.38;;
60344;SDS011;46188;52.324;8.032;2023-02-21T05:23:01;44.28;;;22.90;;
60344;SDS011;46188;52.324;8.032;2023-02-21T05:25:26;49.38;;;23.42;;
60344;SDS011;46188;52.324;8.032;2023-02-21T05:27:52;44.47;;;22.90;;
60344;SDS011;46188;52.324;8.032;2023-02-21T05:30:19;45.65;;;23.85;;
60344;SDS011;46188;52.324;8.032;2023-02-21T05:32:47;51.63;;;25.02;;
60344;SDS011;46188;52.324;8.032;2023-02-21T05:35:14;50.03;;;22.73;;
60344;SDS011;46188;52.324;8.032;2023-02-21T05:37:40;54.65;;;24.88;;
60344;SDS011;46188;52.324;8.032;2023-02-21T05:40:06;52.08;;;24.98;;
60344;SDS011;46188;52.324;8.032;2023-02-21T05:42:32;55.03;;;24.27;;
60344;SDS011;46188;52.324;8.032;2023-02-21T05:44:57;54.90;;;26.67;;
60344;SDS011;46188;52.324;8.032;2023-02-21T05:47:23;49.40;;;23.55;;
60344;SDS011;46188;52.324;8.032;2023-02-21T05:49:48;50.50;;;23.40;;
60344;SDS011;46188;52.324;8.032;2023-02-21T05:52:14;51.13;;;25.48;;
60344;SDS011;46188;52.324;8.032;2023-02-21T05:54:41;49.47;;;25.95;;
60344;SDS011;46188;52.324;8.032;2023-02-21T05:57:07;47.33;;;23.60;;
60344;SDS011;46188;52.324;8.032;2023-02-21T05:59:33;48.70;;;24.15;;
60344;SDS011;46188;52.324;8.032;2023-02-21T06:01:58;46.00;;;21.75;;
60344;SDS011;46188;52.324;8.032;2023-02-21T06:04:24;50.22;;;24.63;;
60344;SDS011;46188;52.324;8.032;2023-02-21T06:06:49;53.28;;;24.13;;
60344;SDS011;46188;52.324;8.032;2023-02-21T06:09:16;52.55;;;24.23;;
60344;SDS011;46188;52.324;8.032;2023-02-21T06:11:43;54.47;;;23.65;;
60344;SDS011;46188;52.324;8.032;2023-02-21T06:14:17;61.70;;;25.38;;
60344;SDS011;46188;52.324;8.032;2023-02-21T06:16:44;54.60;;;24.67;;
60344;SDS011;46188;52.324;8.032;2023-02-21T06:19:11;54.10;;;25.50;;
60344;SDS011;46188;52.324;8.032;2023-02-21T06:21:38;53.38;;;24.83;;
60344;SDS011;46188;52.324;8.032;2023-02-21T06:24:07;50.40;;;25.60;;
60344;SDS011;46188;52.324;8.032;2023-02-21T06:26:34;59.13;;;26.60;;
60344;SDS011;46188;52.324;8.032;2023-02-21T06:29:01;53.78;;;25.17;;
60344;SDS011;46188;52.324;8.032;2023-02-21T06:31:28;49.00;;;24.23;;
60344;SDS011;46188;52.324;8.032;2023-02-21T06:33:54;56.25;;;25.73;;
60344;SDS011;46188;52.324;8.032;2023-02-21T06:36:20;55.72;;;24.85;;
60344;SDS011;46188;52.324;8.032;2023-02-21T06:38:48;55.38;;;24.90;;
60344;SDS011;46188;52.324;8.032;2023-02-21T06:41:16;55.28;;;25.35;;
60344;SDS011;46188;52.324;8.032;2023-02-21T06:43:48;54.25;;;25.35;;
60344;SDS011;46188;52.324;8.032;2023-02-21T06:46:15;59.08;;;26.98;;
60344;SDS011;46188;52.324;8.032;2023-02-21T06:48:42;55.08;;;25.48;;
60344;SDS011;46188;52.324;8.032;2023-02-21T06:51:08;56.47;;;27.35;;
60344;SDS011;46188;52.324;8.032;2023-02-21T06:53:38;68.10;;;28.63;;
60344;SDS011;46188;52.324;8.032;2023-02-21T06:56:04;67.18;;;26.23;;
60344;SDS011;46188;52.324;8.032;2023-02-21T06:58:30;58.30;;;27.20;;
60344;SDS011;46188;52.324;8.032;2023-02-21T07:00:56;61.55;;;27.45;;
60344;SDS011;46188;52.324;8.032;2023-02-21T07:03:21;57.22;;;25.05;;
60344;SDS011;46188;52.324;8.032;2023-02-21T07:05:47;55.72;;;28.25;;
60344;SDS011;46188;52.324;8.032;2023-02-21T07:08:12;66.22;;;26.92;;
60344;SDS011;46188;52.324;8.032;2023-02-21T07:10:37;57.78;;;25.65;;
60344;SDS011;46188;52.324;8.032;2023-02-21T07:13:03;59.67;;;27.45;;
60344;SDS011;46188;52.324;8.032;2023-02-21T07:15:28;59.92;;;25.80;;
60344;SDS011;46188;52.324;8.032;2023-02-21T07:17:54;64.07;;;28.95;;
60344;SDS011;46188;52.324;8.032;2023-02-21T07:20:20;67.63;;;26.05;;
60344;SDS011;46188;52.324;8.032;2023-02-21T07:22:45;60.97;;;27.48;;
60344;SDS011;46188;52.324;8.032;2023-02-21T07:25:13;64.80;;;26.42;;
60344;SDS011;46188;52.324;8.032;2023-02-21T07:27:43;61.13;;;24.70;;
60344;SDS011;46188;52.324;8.032;2023-02-21T07:30:11;71.13;;;26.63;;
60344;SDS011;46188;52.324;8.032;2023-02-21T07:32:36;70.28;;;31.10;;
60344;SDS011;46188;52.324;8.032;2023-02-21T07:35:02;64.13;;;26.52;;
60344;SDS011;46188;52.324;8.032;2023-02-21T07:37:28;64.78;;;25.75;;
60344;SDS011;46188;52.324;8.032;2023-02-21T07:39:53;59.58;;;24.92;;
60344;SDS011;46188;52.324;8.032;2023-02-21T07:42:19;58.10;;;23.75;;
60344;SDS011;46188;52.324;8.032;2023-02-21T07:44:44;58.78;;;24.67;;
60344;SDS011;46188;52.324;8.032;2023-02-21T07:47:10;59.65;;;25.00;;
60344;SDS011;46188;52.324;8.032;2023-02-21T07:49:36;58.05;;;23.77;;
60344;SDS011;46188;52.324;8.032;2023-02-21T07:52:02;53.45;;;22.65;;
60344;SDS011;46188;52.324;8.032;2023-02-21T07:54:28;48.55;;;22.00;;
60344;SDS011;46188;52.324;8.032;2023-02-21T07:56:53;59.20;;;24.48;;
60344;SDS011;46188;52.324;8.032;2023-02-21T07:59:19;56.92;;;23.38;;
60344;SDS011;46188;52.324;8.032;2023-02-21T08:01:45;54.78;;;22.70;;
60344;SDS011;46188;52.324;8.032;2023-02-21T08:04:11;59.92;;;23.90;;
60344;SDS011;46188;52.324;8.032;2023-02-21T08:06:37;46.53;;;21.50;;
60344;SDS011;46188;52.324;8.032;2023-02-21T08:09:03;48.75;;;21.98;;
60344;SDS011;46188;52.324;8.032;2023-02-21T08:11:29;57.28;;;26.70;;
60344;SDS011;46188;52.324;8.032;2023-02-21T08:13:54;53.60;;;24.42;;
60344;SDS011;46188;52.324;8.032;2023-02-21T08:16:20;53.67;;;21.00;;
60344;SDS011;46188;52.324;8.032;2023-02-21T08:18:46;52.25;;;21.88;;
60344;SDS011;46188;52.324;8.032;2023-02-21T08:21:12;50.78;;;22.30;;
60344;SDS011;46188;52.324;8.032;2023-02-21T08:23:37;44.50;;;19.45;;
60344;SDS011;46188;52.324;8.032;2023-02-21T08:26:03;42.67;;;18.73;;
60344;SDS011;46188;52.324;8.032;2023-02-21T08:28:29;41.65;;;18.38;;
60344;SDS011;46188;52.324;8.032;2023-02-21T08:30:54;45.00;;;19.55;;
60344;SDS011;46188;52.324;8.032;2023-02-21T08:33:20;42.22;;;18.67;;
60344;SDS011;46188;52.324;8.032;2023-02-21T08:35:45;40.90;;;18.80;;
60344;SDS011;46188;52.324;8.032;2023-02-21T08:38:11;34.95;;;16.75;;
60344;SDS011;46188;52.324;8.032;2023-02-21T08:40:36;36.83;;;18.45;;
60344;SDS011;46188;52.324;8.032;2023-02-21T08:43:02;35.00;;;16.77;;
60344;SDS011;46188;52.324;8.032;2023-02-21T08:45:29;40.28;;;18.10;;
60344;SDS011;46188;52.324;8.032;2023-02-21T08:47:54;34.47;;;17.15;;
60344;SDS011;46188;52.324;8.032;2023-02-21T08:50:24;34.08;;;16.33;;
60344;SDS011;46188;52.324;8.032;2023-02-21T08:52:51;35.92;;;16.00;;
60344;SDS011;46188;52.324;8.032;2023-02-21T08:55:17;34.67;;;16.73;;
60344;SDS011;46188;52.324;8.032;2023-02-21T08:57:44;34.55;;;15.70;;
60344;SDS011;46188;52.324;8.032;2023-02-21T09:00:12;35.08;;;16.65;;
60344;SDS011;46188;52.324;8.032;2023-02-21T09:02:39;35.05;;;16.50;;
60344;SDS011;46188;52.324;8.032;2023-02-21T09:05:08;34.55;;;15.88;;
60344;SDS011;46188;52.324;8.032;2023-02-21T09:07:36;40.75;;;19.02;;
60344;SDS011;46188;52.324;8.032;2023-02-21T09:10:02;35.90;;;16.73;;
60344;SDS011;46188;52.324;8.032;2023-02-21T09:12:28;35.05;;;18.55;;
60344;SDS011;46188;52.324;8.032;2023-02-21T09:14:54;37.35;;;18.35;;
60344;SDS011;46188;52.324;8.032;2023-02-21T09:17:19;38.00;;;18.50;;
60344;SDS011;46188;52.324;8.032;2023-02-21T09:19:45;36.42;;;16.67;;
60344;SDS011;46188;52.324;8.032;2023-02-21T09:22:10;38.55;;;17.10;;
60344;SDS011;46188;52.324;8.032;2023-02-21T09:24:36;37.45;;;16.70;;
60344;SDS011;46188;52.324;8.032;2023-02-21T09:27:02;40.65;;;18.23;;
60344;SDS011;46188;52.324;8.032;2023-02-21T09:29:29;40.28;;;17.00;;
60344;SDS011;46188;52.324;8.032;2023-02-21T09:31:56;40.83;;;17.60;;
60344;SDS011;46188;52.324;8.032;2023-02-21T09:34:21;44.50;;;19.83;;
60344;SDS011;46188;52.324;8.032;2023-02-21T09:36:47;41.80;;;19.70;;
60344;SDS011;46188;52.324;8.032;2023-02-21T09:39:15;47.45;;;21.20;;
60344;SDS011;46188;52.324;8.032;2023-02-21T09:41:41;44.38;;;18.55;;
60344;SDS011;46188;52.324;8.032;2023-02-21T09:44:12;48.95;;;20.77;;
60344;SDS011;46188;52.324;8.032;2023-02-21T09:46:43;47.17;;;19.85;;
60344;SDS011;46188;52.324;8.032;2023-02-21T09:49:22;46.13;;;20.65;;
60344;SDS011;46188;52.324;8.032;2023-02-21T09:51:50;51.10;;;21.35;;
60344;SDS011;46188;52.324;8.032;2023-02-21T09:54:24;49.80;;;20.90;;
60344;SDS011;46188;52.324;8.032;2023-02-21T09:56:55;44.05;;;18.90;;
60344;SDS011;46188;52.324;8.032;2023-02-21T09:59:24;50.75;;;21.45;;
60344;SDS011;46188;52.324;8.032;2023-02-21T10:04:54;48.00;;;20.02;;
60344;SDS011;46188;52.324;8.032;2023-02-21T10:16:17;51.90;;;20.85;;
60344;SDS011;46188;52.324;8.032;2023-02-21T10:19:04;53.70;;;21.25;;
60344;SDS011;46188;52.324;8.032;2023-02-21T10:21:40;45.17;;;19.17;;
60344;SDS011;46188;52.324;8.032;2023-02-21T10:24:12;45.55;;;19.75;;
60344;SDS011;46188;52.324;8.032;2023-02-21T10:26:45;45.45;;;19.52;;
60344;SDS011;46188;52.324;8.032;2023-02-21T10:29:38;46.03;;;20.25;;
60344;SDS011;46188;52.324;8.032;2023-02-21T10:32:06;45.70;;;20.58;;
60344;SDS011;46188;52.324;8.032;2023-02-21T10:34:32;52.03;;;21.33;;
60344;SDS011;46188;52.324;8.032;2023-02-21T10:37:03;46.55;;;19.88;;
60344;SDS011;46188;52.324;8.032;2023-02-21T10:39:43;47.38;;;20.77;;
60344;SDS011;46188;52.324;8.032;2023-02-21T10:42:20;40.65;;;19.63;;
60344;SDS011;46188;52.324;8.032;2023-02-21T10:44:54;42.08;;;18.95;;
60344;SDS011;46188;52.324;8.032;2023-02-21T10:47:21;46.72;;;20.35;;
60344;SDS011;46188;52.324;8.032;2023-02-21T10:50:04;42.65;;;19.58;;
60344;SDS011;46188;52.324;8.032;2023-02-21T10:52:45;38.50;;;18.90;;
60344;SDS011;46188;52.324;8.032;2023-02-21T10:57:41;45.28;;;19.02;;
60344;SDS011;46188;52.324;8.032;2023-02-21T11:00:09;42.45;;;19.60;;
60344;SDS011;46188;52.324;8.032;2023-02-21T11:02:45;41.50;;;18.60;;
60344;SDS011;46188;52.324;8.032;2023-02-21T11:05:20;42.53;;;18.15;;
60344;SDS011;46188;52.324;8.032;2023-02-21T11:08:37;47.03;;;19.80;;
60344;SDS011;46188;52.324;8.032;2023-02-21T11:10:42;38.92;;;19.33;;
60344;SDS011;46188;52.324;8.032;2023-02-21T11:13:12;45.45;;;20.60;;
60344;SDS011;46188;52.324;8.032;2023-02-21T11:15:42;47.50;;;19.90;;
60344;SDS011;46188;52.324;8.032;2023-02-21T11:18:14;45.75;;;21.45;;
60344;SDS011;46188;52.324;8.032;2023-02-21T11:20:43;43.90;;;21.15;;
60344;SDS011;46188;52.324;8.032;2023-02-21T11:25:54;45.90;;;19.83;;
60344;SDS011;46188;52.324;8.032;2023-02-21T11:28:29;46.30;;;21.92;;
60344;SDS011;46188;52.324;8.032;2023-02-21T11:33:27;46.70;;;20.98;;
60344;SDS011;46188;52.324;8.032;2023-02-21T11:36:06;56.08;;;23.00;;
60344;SDS011;46188;52.324;8.032;2023-02-21T11:38:36;80.30;;;25.65;;
60344;SDS011;46188;52.324;8.032;2023-02-21T11:41:44;46.90;;;19.60;;
60344;SDS011;46188;52.324;8.032;2023-02-21T11:46:54;50.70;;;20.52;;
60344;SDS011;46188;52.324;8.032;2023-02-21T11:52:13;43.33;;;20.55;;
60344;SDS011;46188;52.324;8.032;2023-02-21T11:54:46;46.45;;;21.17;;
60344;SDS011;46188;52.324;8.032;2023-02-21T12:00:02;46.15;;;19.80;;
60344;SDS011;46188;52.324;8.032;2023-02-21T12:02:51;43.58;;;19.50;;
60344;SDS011;46188;52.324;8.032;2023-02-21T12:08:11;48.15;;;19.40;;
60344;SDS011;46188;52.324;8.032;2023-02-21T12:16:12;46.85;;;20.25;;
60344;SDS011;46188;52.324;8.032;2023-02-21T12:26:48;51.38;;;20.48;;
60344;SDS011;46188;52.324;8.032;2023-02-21T12:46:04;50.90;;;19.27;;
60344;SDS011;46188;52.324;8.032;2023-02-21T12:51:19;51.40;;;19.05;;
60344;SDS011;46188;52.324;8.032;2023-02-21T12:53:54;48.35;;;20.30;;
60344;SDS011;46188;52.324;8.032;2023-02-21T12:56:23;43.08;;;18.77;;
60344;SDS011;46188;52.324;8.032;2023-02-21T12:59:04;45.58;;;18.50;;
60344;SDS011;46188;52.324;8.032;2023-02-21T13:01:42;42.75;;;18.40;;
60344;SDS011;46188;52.324;8.032;2023-02-21T13:07:09;41.58;;;16.67;;
60344;SDS011;46188;52.324;8.032;2023-02-21T13:09:53;41.45;;;17.25;;
60344;SDS011;46188;52.324;8.032;2023-02-21T13:12:27;40.80;;;18.20;;
60344;SDS011;46188;52.324;8.032;2023-02-21T13:15:18;38.92;;;17.20;;
60344;SDS011;46188;52.324;8.032;2023-02-21T13:18:06;41.78;;;17.05;;
60344;SDS011;46188;52.324;8.032;2023-02-21T13:20:36;39.33;;;17.75;;
60344;SDS011;46188;52.324;8.032;2023-02-21T13:29:36;40.13;;;17.08;;
60344;SDS011;46188;52.324;8.032;2023-02-21T13:32:08;35.20;;;15.15;;
60344;SDS011;46188;52.324;8.032;2023-02-21T13:34:40;39.80;;;16.70;;
60344;SDS011;46188;52.324;8.032;2023-02-21T13:37:21;36.53;;;15.88;;
60344;SDS011;46188;52.324;8.032;2023-02-21T13:39:51;38.58;;;15.82;;
60344;SDS011;46188;52.324;8.032;2023-02-21T13:42:20;38.72;;;16.90;;
60344;SDS011;46188;52.324;8.032;2023-02-21T13:45:13;39.22;;;15.75;;
60344;SDS011;46188;52.324;8.032;2023-02-21T13:58:35;31.50;;;13.27;;
60344;SDS011;46188;52.324;8.032;2023-02-21T14:01:23;36.22;;;15.13;;
60344;SDS011;46188;52.324;8.032;2023-02-21T14:07:07;35.72;;;13.55;;
60344;SDS011;46188;52.324;8.032;2023-02-21T14:09:33;33.53;;;13.35;;
60344;SDS011;46188;52.324;8.032;2023-02-21T14:12:03;35.08;;;14.10;;
60344;SDS011;46188;52.324;8.032;2023-02-21T14:14:30;29.40;;;13.25;;
60344;SDS011;46188;52.324;8.032;2023-02-21T14:17:05;28.60;;;12.20;;
60344;SDS011;46188;52.324;8.032;2023-02-21T14:19:35;32.30;;;13.45;;
60344;SDS011;46188;52.324;8.032;2023-02-21T14:24:37;33.53;;;15.48;;
60344;SDS011;46188;52.324;8.032;2023-02-21T14:34:38;34.38;;;13.73;;
60344;SDS011;46188;52.324;8.032;2023-02-21T14:45:19;34.83;;;14.10;;
60344;SDS011;46188;52.324;8.032;2023-02-21T14:48:32;33.80;;;12.90;;
60344;SDS011;46188;52.324;8.032;2023-02-21T14:59:02;26.02;;;11.25;;
60344;SDS011;46188;52.324;8.032;2023-02-21T15:05:02;22.95;;;10.30;;
60344;SDS011;46188;52.324;8.032;2023-02-21T15:10:17;17.25;;;8.57;;
60344;SDS011;46188;52.324;8.032;2023-02-21T15:12:47;17.25;;;8.68;;
60344;SDS011;46188;52.324;8.032;2023-02-21T15:15:32;17.52;;;7.68;;
60344;SDS011;46188;52.324;8.032;2023-02-21T15:18:00;18.88;;;8.13;;
60344;SDS011;46188;52.324;8.032;2023-02-21T15:20:35;16.67;;;7.13;;
60344;SDS011;46188;52.324;8.032;2023-02-21T15:23:10;15.60;;;7.57;;
60344;SDS011;46188;52.324;8.032;2023-02-21T15:25:38;16.60;;;9.57;;
60344;SDS011;46188;52.324;8.032;2023-02-21T15:28:06;15.85;;;7.63;;
60344;SDS011;46188;52.324;8.032;2023-02-21T15:30:54;16.00;;;8.07;;
60344;SDS011;46188;52.324;8.032;2023-02-21T15:33:35;13.95;;;7.35;;
60344;SDS011;46188;52.324;8.032;2023-02-21T15:38:49;15.82;;;7.22;;
60344;SDS011;46188;52.324;8.032;2023-02-21T15:41:35;15.65;;;7.28;;
60344;SDS011;46188;52.324;8.032;2023-02-21T15:46:46;14.85;;;7.25;;
60344;SDS011;46188;52.324;8.032;2023-02-21T15:49:19;16.08;;;7.63;;
60344;SDS011;46188;52.324;8.032;2023-02-21T15:51:46;12.18;;;6.68;;
60344;SDS011;46188;52.324;8.032;2023-02-21T15:56:41;16.30;;;6.85;;
60344;SDS011;46188;52.324;8.032;2023-02-21T15:59:16;16.38;;;7.68;;
60344;SDS011;46188;52.324;8.032;2023-02-21T16:01:44;13.95;;;7.32;;
60344;SDS011;46188;52.324;8.032;2023-02-21T16:04:34;15.70;;;7.68;;
60344;SDS011;46188;52.324;8.032;2023-02-21T16:07:00;20.50;;;11.45;;
60344;SDS011;46188;52.324;8.032;2023-02-21T16:09:28;16.27;;;9.95;;
60344;SDS011;46188;52.324;8.032;2023-02-21T16:11:59;17.00;;;10.05;;
60344;SDS011;46188;52.324;8.032;2023-02-21T16:14:36;18.65;;;10.13;;
60344;SDS011;46188;52.324;8.032;2023-02-21T16:19:55;17.80;;;9.27;;
60344;SDS011;46188;52.324;8.032;2023-02-21T16:24:49;13.38;;;6.93;;
60344;SDS011;46188;52.324;8.032;2023-02-21T16:27:28;13.70;;;7.72;;
60344;SDS011;46188;52.324;8.032;2023-02-21T16:29:53;17.10;;;8.52;;
60344;SDS011;46188;52.324;8.032;2023-02-21T16:32:19;13.98;;;7.30;;
60344;SDS011;46188;52.324;8.032;2023-02-21T16:34:45;16.42;;;7.97;;
60344;SDS011;46188;52.324;8.032;2023-02-21T16:37:12;15.98;;;8.10;;
60344;SDS011;46188;52.324;8.032;2023-02-21T16:39:38;15.63;;;8.20;;
60344;SDS011;46188;52.324;8.032;2023-02-21T16:42:05;13.73;;;8.23;;
60344;SDS011;46188;52.324;8.032;2023-02-21T16:44:31;17.95;;;8.85;;
60344;SDS011;46188;52.324;8.032;2023-02-21T16:46:57;15.02;;;7.95;;
60344;SDS011;46188;52.324;8.032;2023-02-21T16:49:22;14.70;;;8.80;;
60344;SDS011;46188;52.324;8.032;2023-02-21T16:51:48;17.35;;;9.70;;
60344;SDS011;46188;52.324;8.032;2023-02-21T16:54:13;19.23;;;8.70;;
60344;SDS011;46188;52.324;8.032;2023-02-21T16:56:40;16.95;;;8.68;;
60344;SDS011;46188;52.324;8.032;2023-02-21T16:59:12;19.17;;;8.70;;
60344;SDS011;46188;52.324;8.032;2023-02-21T17:01:40;17.13;;;7.97;;
60344;SDS011;46188;52.324;8.032;2023-02-21T17:04:20;15.73;;;7.88;;
60344;SDS011;46188;52.324;8.032;2023-02-21T17:06:56;15.90;;;8.55;;
60344;SDS011;46188;52.324;8.032;2023-02-21T17:09:25;17.20;;;8.90;;
60344;SDS011;46188;52.324;8.032;2023-02-21T17:11:52;16.58;;;8.30;;
60344;SDS011;46188;52.324;8.032;2023-02-21T17:14:18;18.20;;;8.73;;
60344;SDS011;46188;52.324;8.032;2023-02-21T17:16:44;17.85;;;8.95;;
60344;SDS011;46188;52.324;8.032;2023-02-21T17:19:14;17.92;;;8.65;;
60344;SDS011;46188;52.324;8.032;2023-02-21T17:21:41;22.23;;;11.05;;
60344;SDS011;46188;52.324;8.032;2023-02-21T17:24:07;20.38;;;9.73;;
60344;SDS011;46188;52.324;8.032;2023-02-21T17:26:33;25.30;;;12.38;;
60344;SDS011;46188;52.324;8.032;2023-02-21T17:28:59;19.88;;;10.98;;
60344;SDS011;46188;52.324;8.032;2023-02-21T17:31:25;24.83;;;11.73;;
60344;SDS011;46188;52.324;8.032;2023-02-21T17:33:50;20.77;;;11.32;;
60344;SDS011;46188;52.324;8.032;2023-02-21T17:36:24;20.25;;;11.27;;
60344;SDS011;46188;52.324;8.032;2023-02-21T17:38:51;19.55;;;9.77;;
60344;SDS011;46188;52.324;8.032;2023-02-21T17:41:17;17.10;;;9.25;;
60344;SDS011;46188;52.324;8.032;2023-02-21T17:43:44;18.60;;;9.20;;
60344;SDS011;46188;52.324;8.032;2023-02-21T17:46:10;19.45;;;9.00;;
60344;SDS011;46188;52.324;8.032;2023-02-21T17:48:36;17.25;;;8.57;;
60344;SDS011;46188;52.324;8.032;2023-02-21T17:51:02;17.63;;;10.05;;